Time,TemperatureF,DewpointF,PressureIn,WindDirection,WindDirectionDegrees,WindSpeedMPH,WindSpeedGustMPH,Humidity,HourlyPrecipIn,Conditions,Clouds,dailyrainin,SoftwareType,DateUTC
2013-02-04 00:30:00,24.6,21.6,29.72,West,276,1.0,1.0,88,0.00,,,0.00,Wunderground v.1.15,2013-02-04 05:30:00,
2013-02-04 01:00:00,24.5,21.5,29.72,WSW,258,1.0,1.0,88,0.00,,,0.00,Wunderground v.1.15,2013-02-04 06:00:00,
2013-02-04 01:30:00,24.4,21.4,29.72,West,262,0.0,0.0,88,0.00,,,0.00,Wunderground v.1.15,2013-02-04 06:30:00,
2013-02-04 02:00:00,23.8,20.8,29.72,West,268,1.0,1.0,88,0.00,,,0.00,Wunderground v.1.15,2013-02-04 07:00:00,
2013-02-04 02:30:00,23.5,20.2,29.72,West,259,1.0,3.0,87,0.00,,,0.00,Wunderground v.1.15,2013-02-04 07:30:00,
2013-02-04 03:00:00,23.2,19.1,29.71,SW,216,1.0,2.0,84,0.00,,,0.00,Wunderground v.1.15,2013-02-04 08:00:00,
2013-02-04 03:30:00,22.7,17.7,29.71,WSW,245,1.0,1.0,81,0.00,,,0.00,Wunderground v.1.15,2013-02-04 08:30:00,
2013-02-04 04:00:00,22.2,16.4,29.72,WNW,284,2.0,2.0,78,0.00,,,0.00,Wunderground v.1.15,2013-02-04 09:00:00,
2013-02-04 04:30:00,22.4,16.0,29.73,West,277,2.0,2.0,76,0.00,,,0.00,Wunderground v.1.15,2013-02-04 09:30:00,
2013-02-04 05:00:00,22.0,15.6,29.73,SW,226,2.0,2.0,76,0.00,,,0.00,Wunderground v.1.15,2013-02-04 10:00:00,
2013-02-04 05:30:00,21.6,15.2,29.74,WSW,256,2.0,2.0,76,0.00,,,0.00,Wunderground v.1.15,2013-02-04 10:30:00,
2013-02-04 06:00:00,21.0,14.9,29.74,West,271,2.0,3.0,77,0.00,,,0.00,Wunderground v.1.15,2013-02-04 11:00:00,
2013-02-04 06:30:00,21.2,15.1,29.75,West,266,2.0,5.0,77,0.00,,,0.00,Wunderground v.1.15,2013-02-04 11:30:00,
2013-02-04 07:00:00,21.3,15.2,29.76,WSW,248,2.0,2.0,77,0.00,,,0.00,Wunderground v.1.15,2013-02-04 12:00:00,
2013-02-04 07:30:00,21.9,15.5,29.77,West,273,3.0,3.0,76,0.00,,,0.00,Wunderground v.1.15,2013-02-04 12:30:00,
2013-02-04 08:00:00,23.2,15.8,29.77,WSW,245,3.0,3.0,73,0.00,,,0.00,Wunderground v.1.15,2013-02-04 13:00:00,
2013-02-04 08:30:00,24.2,15.8,29.78,West,270,4.0,5.0,70,0.00,,,0.00,Wunderground v.1.15,2013-02-04 13:30:00,
2013-02-04 09:00:00,25.4,15.6,29.77,SSW,211,4.0,4.0,66,0.00,,,0.00,Wunderground v.1.15,2013-02-04 14:00:00,
2013-02-04 09:30:00,26.5,14.1,29.78,West,271,6.0,6.0,59,0.00,,,0.00,Wunderground v.1.15,2013-02-04 14:30:00,
2013-02-04 10:00:00,26.8,13.2,29.78,WSW,252,6.0,7.0,56,0.00,,,0.00,Wunderground v.1.15,2013-02-04 15:00:00,
2013-02-04 10:30:00,28.2,13.2,29.78,WSW,243,5.0,11.0,53,0.00,,,0.00,Wunderground v.1.15,2013-02-04 15:30:00,
2013-02-04 11:00:00,28.6,12.3,29.78,ESE,115,4.0,4.0,50,0.00,,,0.00,Wunderground v.1.15,2013-02-04 16:00:00,
2013-02-04 11:30:00,28.5,11.3,29.77,SSW,194,5.0,5.0,48,0.00,,,0.00,Wunderground v.1.15,2013-02-04 16:30:00,
2013-02-04 12:00:00,29.3,10.6,29.76,West,264,6.0,6.0,45,0.00,,,0.00,Wunderground v.1.15,2013-02-04 17:00:00,
2013-02-04 12:30:00,30.5,10.6,29.76,WSW,252,5.0,7.0,43,0.00,,,0.00,Wunderground v.1.15,2013-02-04 17:30:00,
2013-02-04 13:00:00,28.3,8.6,29.76,West,277,6.0,7.0,43,0.00,,,0.00,Wunderground v.1.15,2013-02-04 18:00:00,
2013-02-04 13:30:00,29.0,10.8,29.76,WSW,243,4.0,7.0,46,0.00,,,0.00,Wunderground v.1.15,2013-02-04 18:30:00,
2013-02-04 14:00:00,29.7,8.8,29.76,West,281,8.0,8.0,41,0.00,,,0.00,Wunderground v.1.15,2013-02-04 19:00:00,
2013-02-04 14:30:00,29.6,9.3,29.77,West,278,6.0,16.0,42,0.00,,,0.00,Wunderground v.1.15,2013-02-04 19:30:00,
2013-02-04 15:00:00,29.1,8.3,29.78,West,260,7.0,13.0,41,0.00,,,0.00,Wunderground v.1.15,2013-02-04 20:00:00,
2013-02-04 15:30:00,29.0,7.1,29.79,West,270,6.0,6.0,39,0.00,,,0.00,Wunderground v.1.15,2013-02-04 20:30:00,
2013-02-04 16:00:00,29.4,8.6,29.78,West,278,4.0,4.0,41,0.00,,,0.00,Wunderground v.1.15,2013-02-04 21:00:00,
2013-02-04 16:30:00,28.0,8.4,29.79,WSW,248,7.0,7.0,43,0.00,,,0.00,Wunderground v.1.15,2013-02-04 21:30:00,
2013-02-04 17:00:00,27.4,8.8,29.80,West,271,5.0,10.0,45,0.00,,,0.00,Wunderground v.1.15,2013-02-04 22:00:00,
2013-02-04 17:30:00,26.7,7.7,29.82,WSW,248,3.0,5.0,44,0.00,,,0.00,Wunderground v.1.15,2013-02-04 22:30:00,
2013-02-04 18:00:00,26.1,8.1,29.83,West,272,3.0,4.0,46,0.00,,,0.00,Wunderground v.1.15,2013-02-04 23:00:00,
2013-02-04 18:30:00,25.8,6.3,29.85,West,271,4.0,5.0,43,0.00,,,0.00,Wunderground v.1.15,2013-02-04 23:30:00,
2013-02-04 19:00:00,25.2,7.3,29.86,West,278,3.0,3.0,46,0.00,,,0.00,Wunderground v.1.15,2013-02-05 00:00:00,
2013-02-04 19:30:00,24.7,7.8,29.87,West,278,3.0,3.0,48,0.00,,,0.00,Wunderground v.1.15,2013-02-05 00:30:00,
2013-02-04 20:00:00,24.4,7.9,29.88,WSW,242,3.0,3.0,49,0.00,,,0.00,Wunderground v.1.15,2013-02-05 01:00:00,
2013-02-04 20:30:00,23.9,8.8,29.89,WNW,284,2.0,3.0,52,0.00,,,0.00,Wunderground v.1.15,2013-02-05 01:30:00,
2013-02-04 21:00:00,23.6,8.9,29.90,SW,228,4.0,4.0,53,0.00,,,0.00,Wunderground v.1.15,2013-02-05 02:00:00,
2013-02-04 21:30:00,23.2,8.6,29.91,NNW,338,3.0,3.0,53,0.00,,,0.00,Wunderground v.1.15,2013-02-05 02:30:00,
2013-02-04 22:00:00,22.7,8.5,29.91,SSW,200,3.0,3.0,54,0.00,,,0.00,Wunderground v.1.15,2013-02-05 03:00:00,
2013-02-04 22:30:00,22.2,8.9,29.91,West,262,2.0,4.0,56,0.00,,,0.00,Wunderground v.1.15,2013-02-05 03:30:00,
2013-02-04 23:00:00,21.5,9.0,29.92,West,269,1.0,1.0,58,0.00,,,0.00,Wunderground v.1.15,2013-02-05 04:00:00,
2013-02-04 23:30:00,21.4,8.9,29.93,ENE,60,2.0,2.0,58,0.00,,,0.00,Wunderground v.1.15,2013-02-05 04:30:00,